Time;durP1;ratioP1;P1;durP2;ratioP2;P2;SDS_P1;SDS_P2;PMS_P1;PMS_P2;Temp;Humidity;BMP_temperature;BMP_pressure;BME280_temperature;BME280_humidity;BME280_pressure;Samples;Min_cycle;Max_cycle;Signal;HPM_P1;HPM_P2
2021/07/30 00:00:05;;;;;;;10.10;6.65;;;;;;;14.19;100.00;95535.00;1035030;28;20029;-67
2021/07/30 00:00:35;;;;;;;11.52;7.53;;;;;;;14.19;100.00;95537.66;1038845;28;20063;-67
2021/07/30 00:01:06;;;;;;;10.82;7.30;;;;;;;14.12;100.00;95532.75;1031746;28;20054;-67
2021/07/30 00:01:37;;;;;;;9.68;7.72;;;;;;;14.17;100.00;95545.06;1022156;28;20580;-67
2021/07/30 00:02:07;;;;;;;10.88;7.70;;;;;;;14.17;100.00;95539.78;1022111;29;20023;-67
2021/07/30 00:02:37;;;;;;;8.38;6.90;;;;;;;14.14;100.00;95540.38;1022805;28;20806;-67
2021/07/30 00:03:08;;;;;;;10.30;7.25;;;;;;;14.13;100.00;95544.09;1027366;28;20528;-66
2021/07/30 00:03:38;;;;;;;10.50;7.45;;;;;;;14.11;100.00;95544.34;1030688;28;20396;-64
2021/07/30 00:04:09;;;;;;;16.85;7.63;;;;;;;14.11;100.00;95543.56;1026650;28;20420;-64
2021/07/30 00:04:39;;;;;;;15.02;8.35;;;;;;;14.11;100.00;95546.22;1026721;28;20586;-67
2021/07/30 00:05:10;;;;;;;13.90;7.45;;;;;;;14.08;100.00;95541.53;1017981;29;20392;-67
2021/07/30 00:05:40;;;;;;;12.98;8.07;;;;;;;14.06;100.00;95541.03;1026683;28;20027;-66
2021/07/30 00:06:11;;;;;;;14.45;8.35;;;;;;;14.09;100.00;95540.47;1022504;28;20023;-67
2021/07/30 00:06:41;;;;;;;10.23;7.75;;;;;;;14.06;100.00;95543.69;1026318;28;20501;-67
2021/07/30 00:07:12;;;;;;;13.07;7.97;;;;;;;14.07;100.00;95548.66;1022369;28;20059;-67
2021/07/30 00:07:44;;;;;;;12.32;8.27;;;;;;;14.08;100.00;95544.97;1014827;29;20017;-67
2021/07/30 00:08:14;;;;;;;11.82;8.02;;;;;;;14.07;100.00;95547.88;1030310;28;20030;-66
2021/07/30 00:08:45;;;;;;;10.88;7.68;;;;;;;14.06;100.00;95544.47;1022469;28;20122;-67
2021/07/30 00:09:15;;;;;;;13.30;7.53;;;;;;;14.07;100.00;95545.22;1018399;28;20444;-67
2021/07/30 00:09:46;;;;;;;14.38;8.35;;;;;;;14.05;100.00;95544.72;1018734;29;20027;-67
2021/07/30 00:10:16;;;;;;;13.15;8.27;;;;;;;14.03;100.00;95541.63;1021547;28;20068;-67
2021/07/30 00:10:47;;;;;;;12.00;9.02;;;;;;;14.06;100.00;95543.69;1018884;28;20802;-67
2021/07/30 00:11:17;;;;;;;12.82;7.93;;;;;;;14.04;100.00;95541.31;1022460;29;20091;-66
2021/07/30 00:11:48;;;;;;;12.07;8.73;;;;;;;14.04;100.00;95548.44;1015939;29;20036;-67
2021/07/30 00:12:18;;;;;;;18.33;8.68;;;;;;;14.04;100.00;95543.94;1018745;29;20039;-67
2021/07/30 00:12:55;;;;;;;13.95;9.23;;;;;;;14.04;100.00;95540.53;1018670;29;20020;-64
2021/07/30 00:13:25;;;;;;;11.38;8.40;;;;;;;14.04;100.00;95543.16;1025400;28;20023;-67
2021/07/30 00:13:56;;;;;;;11.60;8.68;;;;;;;14.01;100.00;95544.53;1034594;28;20104;-67
2021/07/30 00:14:27;;;;;;;12.68;8.77;;;;;;;14.03;100.00;95546.91;1027568;28;20030;-67
2021/07/30 00:14:57;;;;;;;18.95;9.15;;;;;;;14.01;100.00;95546.38;1026462;28;20034;-66
2021/07/30 00:15:27;;;;;;;14.73;8.25;;;;;;;13.99;100.00;95543.28;1026609;28;20096;-67
2021/07/30 00:15:58;;;;;;;12.48;8.00;;;;;;;14.00;100.00;95544.81;1026439;28;20031;-67
2021/07/30 00:16:28;;;;;;;21.55;8.80;;;;;;;14.01;100.00;95551.66;1030614;28;20055;-64
2021/07/30 00:16:59;;;;;;;22.33;9.52;;;;;;;14.00;100.00;95547.47;1034673;28;20049;-67
2021/07/30 00:17:29;;;;;;;22.00;9.57;;;;;;;13.96;100.00;95541.22;1034119;28;20510;-66
2021/07/30 00:18:00;;;;;;;13.45;8.10;;;;;;;14.00;100.00;95542.97;1034731;28;20021;-67
2021/07/30 00:18:30;;;;;;;11.18;7.85;;;;;;;13.98;100.00;95547.75;1030417;28;20030;-66
2021/07/30 00:19:01;;;;;;;16.70;8.70;;;;;;;14.01;100.00;95551.66;1026574;28;20034;-66
2021/07/30 00:19:33;;;;;;;14.98;9.57;;;;;;;14.01;100.00;95546.38;1025989;28;20073;-67
2021/07/30 00:20:04;;;;;;;15.85;9.20;;;;;;;14.00;100.00;95552.75;1022635;28;20055;-66
2021/07/30 00:20:35;;;;;;;16.60;8.90;;;;;;;13.99;100.00;95544.06;1022473;28;20023;-67
2021/07/30 00:21:06;;;;;;;16.10;8.77;;;;;;;13.91;100.00;95531.50;1018522;29;20361;-67
2021/07/30 00:21:36;;;;;;;13.75;8.27;;;;;;;14.00;100.00;95547.47;1018410;28;20038;-66
2021/07/30 00:22:07;;;;;;;12.27;8.43;;;;;;;13.84;100.00;95521.31;1020993;28;20058;-67
2021/07/30 00:22:37;;;;;;;22.25;8.65;;;;;;;14.03;100.00;95544.25;1026278;28;20041;-66
2021/07/30 00:23:07;;;;;;;11.18;8.38;;;;;;;14.01;100.00;95541.09;1026817;28;20038;-67
2021/07/30 00:23:38;;;;;;;17.50;9.38;;;;;;;14.03;100.00;95539.75;1034402;28;20030;-66
2021/07/30 00:24:09;;;;;;;11.82;8.23;;;;;;;14.03;100.00;95533.69;1034661;28;20026;-65
2021/07/30 00:24:39;;;;;;;15.02;8.77;;;;;;;13.99;100.00;95533.50;1031006;28;20076;-66
2021/07/30 00:25:10;;;;;;;16.15;9.30;;;;;;;13.99;100.00;95530.09;1026772;28;20035;-65
2021/07/30 00:25:40;;;;;;;19.33;8.30;;;;;;;14.04;100.00;95543.94;1026556;28;20069;-66
2021/07/30 00:26:11;;;;;;;14.77;9.00;;;;;;;14.02;100.00;95540.84;1024230;28;20041;-65
2021/07/30 00:26:41;;;;;;;12.43;8.52;;;;;;;14.01;100.00;95543.75;1026789;28;20031;-67
2021/07/30 00:27:12;;;;;;;20.50;9.30;;;;;;;13.99;100.00;95541.41;1027635;28;20102;-66
2021/07/30 00:27:42;;;;;;;11.75;8.93;;;;;;;14.02;100.00;95537.41;1030931;28;20018;-66
2021/07/30 00:28:12;;;;;;;13.18;9.40;;;;;;;13.98;100.00;95541.69;1026529;28;20031;-63
2021/07/30 00:28:45;;;;;;;16.17;7.97;;;;;;;14.01;100.00;95546.38;1022443;29;20043;-67
2021/07/30 00:29:17;;;;;;;13.98;8.40;;;;;;;14.00;100.00;95545.59;1018638;29;20560;-65
2021/07/30 00:29:47;;;;;;;14.35;8.57;;;;;;;14.02;100.00;95545.34;1022376;28;20034;-67
2021/07/30 00:30:18;;;;;;;19.30;9.05;;;;;;;14.03;100.00;95549.53;1026347;28;20062;-67
2021/07/30 00:30:48;;;;;;;12.73;8.25;;;;;;;14.00;100.00;95539.56;1022579;29;20469;-66
2021/07/30 00:31:19;;;;;;;11.20;7.57;;;;;;;14.02;100.00;95548.75;1019929;28;20034;-67
2021/07/30 00:31:49;;;;;;;15.68;9.07;;;;;;;14.04;100.00;95540.53;1014164;29;20040;-66
2021/07/30 00:32:20;;;;;;;14.32;8.73;;;;;;;14.01;100.00;95546.38;1017639;29;20098;-66
2021/07/30 00:32:50;;;;;;;12.02;8.63;;;;;;;14.01;100.00;95551.66;1014485;29;20032;-66
2021/07/30 00:33:20;;;;;;;14.57;8.73;;;;;;;14.00;100.00;95540.34;1018718;29;20039;-66
2021/07/30 00:33:51;;;;;;;17.08;8.15;;;;;;;13.99;100.00;95540.63;1016996;29;20043;-66
2021/07/30 00:34:21;;;;;;;11.23;8.35;;;;;;;13.99;100.00;95544.06;1018711;28;20059;-66
2021/07/30 00:34:52;;;;;;;16.15;9.88;;;;;;;14.01;100.00;95541.09;1033999;28;20018;-66
2021/07/30 00:35:22;;;;;;;14.15;8.70;;;;;;;13.98;100.00;95541.69;1030561;28;20085;-65
2021/07/30 00:35:53;;;;;;;9.63;7.82;;;;;;;13.97;100.00;95540.13;1034607;28;20034;-66
2021/07/30 00:36:23;;;;;;;13.38;9.10;;;;;;;13.91;100.00;95527.00;1034054;28;20038;-66
2021/07/30 00:36:53;;;;;;;15.45;9.02;;;;;;;13.98;100.00;95536.41;1026645;28;20038;-66
2021/07/30 00:37:24;;;;;;;12.52;9.23;;;;;;;13.98;100.00;95544.31;1026514;28;20470;-66
2021/07/30 00:37:55;;;;;;;14.93;9.50;;;;;;;13.97;100.00;95542.75;1026420;28;20027;-66
2021/07/30 00:38:25;;;;;;;14.63;9.73;;;;;;;13.97;100.00;95546.19;1026640;28;20030;-67
2021/07/30 00:38:57;;;;;;;13.93;9.63;;;;;;;13.94;100.00;95541.47;1030457;28;20045;-64
2021/07/30 00:39:28;;;;;;;16.70;9.35;;;;;;;13.96;100.00;95543.84;1030641;28;20031;-67
2021/07/30 00:39:58;;;;;;;15.73;9.27;;;;;;;13.93;100.00;95537.28;1026289;28;20305;-64
2021/07/30 00:40:29;;;;;;;16.10;9.88;;;;;;;13.95;100.00;95537.78;1018551;28;20028;-65
2021/07/30 00:41:02;;;;;;;12.77;9.32;;;;;;;13.94;100.00;95544.13;1021782;28;20042;-67
2021/07/30 00:41:39;;;;;;;13.93;8.57;;;;;;;13.92;100.00;95538.38;1025499;28;20516;-65
2021/07/30 00:42:09;;;;;;;14.48;8.98;;;;;;;13.97;100.00;95548.81;1019537;28;20267;-64
2021/07/30 00:42:50;;;;;;;13.95;9.50;;;;;;;13.96;100.00;95546.47;1022645;28;20274;-66
2021/07/30 00:43:20;;;;;;;;;;;;;;;13.94;100.00;95545.97;1015687;29;20063;-68
2021/07/30 00:43:50;;;;;;;12.00;8.32;;;;;;;13.94;100.00;95543.34;1026531;28;19924;-66
2021/07/30 00:44:21;;;;;;;11.50;8.73;;;;;;;13.93;100.00;95539.91;1018569;29;20031;-66
2021/07/30 00:44:51;;;;;;;16.33;9.80;;;;;;;13.95;100.00;95542.25;1024080;28;20122;-66
2021/07/30 00:45:22;;;;;;;14.82;10.50;;;;;;;13.87;100.00;95533.94;1026783;28;20111;-64
2021/07/30 00:45:53;;;;;;;18.35;9.32;;;;;;;13.85;100.00;95530.03;1022860;28;20043;-66
2021/07/30 00:46:27;;;;;;;14.80;10.38;;;;;;;13.91;100.00;95534.13;1026485;28;20649;-63
2021/07/30 00:46:57;;;;;;;13.32;9.45;;;;;;;13.91;100.00;95540.19;1022758;29;20291;-67
2021/07/30 00:47:29;;;;;;;12.43;8.65;;;;;;;13.90;100.00;95537.84;1023333;28;20039;-63
2021/07/30 00:47:59;;;;;;;13.93;9.77;;;;;;;13.89;100.00;95538.94;1026790;28;20027;-66
2021/07/30 00:48:30;;;;;;;21.20;9.57;;;;;;;13.88;100.00;95532.88;1026544;28;20302;-66
2021/07/30 00:49:00;;;;;;;15.23;9.35;;;;;;;13.86;100.00;95545.56;1026779;28;20007;-66
2021/07/30 00:49:31;;;;;;;21.60;9.52;;;;;;;13.80;100.00;95530.88;1022804;28;20055;-66
2021/07/30 00:50:01;;;;;;;15.13;9.20;;;;;;;13.87;100.00;95541.84;1018366;29;20024;-67
2021/07/30 00:50:32;;;;;;;12.85;8.90;;;;;;;13.82;100.00;95538.53;1018767;29;20031;-66
2021/07/30 00:51:02;;;;;;;14.73;8.30;;;;;;;13.79;100.00;95534.59;1022693;28;20107;-67
2021/07/30 00:51:32;;;;;;;15.27;9.52;;;;;;;13.83;100.00;95540.88;1022323;28;20026;-67
2021/07/30 00:52:03;;;;;;;13.25;9.32;;;;;;;13.73;100.00;95525.19;1022123;28;20022;-67
2021/07/30 00:52:34;;;;;;;13.00;8.73;;;;;;;13.81;100.00;95539.56;1020315;28;20012;-67
2021/07/30 00:53:04;;;;;;;17.10;10.18;;;;;;;13.81;100.00;95539.56;1030635;28;20026;-67
2021/07/30 00:53:35;;;;;;;13.57;8.75;;;;;;;13.78;100.00;95530.41;1030134;28;20022;-67
2021/07/30 00:54:05;;;;;;;17.38;10.15;;;;;;;13.84;100.00;95541.63;1034677;28;20018;-67
2021/07/30 00:54:36;;;;;;;11.93;9.43;;;;;;;13.85;100.00;95544.00;1026777;28;20030;-66
2021/07/30 00:55:09;;;;;;;16.15;9.23;;;;;;;13.88;100.00;95543.44;1022540;28;20458;-67
2021/07/30 00:55:39;;;;;;;12.32;8.95;;;;;;;13.90;100.00;95546.56;1023223;28;20020;-67
2021/07/30 00:56:10;;;;;;;13.25;8.80;;;;;;;13.91;100.00;95542.84;1015769;29;20285;-66
2021/07/30 00:56:41;;;;;;;13.75;8.20;;;;;;;13.92;100.00;95548.91;1018437;28;20351;-67
2021/07/30 00:57:11;;;;;;;13.20;8.88;;;;;;;13.91;100.00;95545.47;1014751;29;20035;-66
2021/07/30 00:57:42;;;;;;;16.63;8.90;;;;;;;13.93;100.00;95544.41;1024703;28;20456;-66
2021/07/30 00:58:13;;;;;;;13.32;8.90;;;;;;;13.91;100.00;95537.56;1030455;28;20022;-66
2021/07/30 00:58:43;;;;;;;13.68;8.43;;;;;;;13.91;100.00;95542.84;1022713;28;20561;-67
2021/07/30 00:59:14;;;;;;;11.55;9.00;;;;;;;13.90;100.00;95551.81;1018601;29;20584;-62
2021/07/30 00:59:44;;;;;;;14.27;8.82;;;;;;;13.82;100.00;95538.53;1023184;28;20453;-66
2021/07/30 01:00:15;;;;;;;13.13;8.80;;;;;;;13.89;100.00;95545.00;1022771;28;20406;-66
2021/07/30 01:00:46;;;;;;;14.65;9.02;;;;;;;13.88;100.00;95538.16;1022997;28;20031;-66
2021/07/30 01:01:17;;;;;;;11.35;8.98;;;;;;;13.86;100.00;95537.66;1030600;28;20480;-66
2021/07/30 01:01:49;;;;;;;13.82;8.93;;;;;;;13.85;100.00;95538.72;1030159;28;20021;-66
2021/07/30 01:02:19;;;;;;;14.40;8.93;;;;;;;13.80;100.00;95530.09;1030615;28;20511;-66
2021/07/30 01:02:50;;;;;;;11.82;8.50;;;;;;;13.83;100.00;95540.88;1022563;29;20269;-65
2021/07/30 01:03:20;;;;;;;12.43;9.25;;;;;;;13.85;100.00;95538.72;1028539;28;20027;-66
2021/07/30 01:03:51;;;;;;;12.20;8.98;;;;;;;13.85;100.00;95537.94;1030683;28;20029;-66
2021/07/30 01:04:21;;;;;;;12.60;9.32;;;;;;;13.82;100.00;95536.66;1034290;28;20081;-67
2021/07/30 01:04:52;;;;;;;11.95;8.55;;;;;;;13.74;100.00;95526.75;1034546;28;20030;-66
2021/07/30 01:05:22;;;;;;;12.23;8.48;;;;;;;13.81;100.00;95531.66;1030653;28;20053;-67
2021/07/30 01:05:53;;;;;;;14.75;9.00;;;;;;;13.81;100.00;95535.09;1026620;28;20408;-67
2021/07/30 01:06:24;;;;;;;16.02;9.30;;;;;;;13.83;100.00;95540.09;1022947;29;20282;-67
2021/07/30 01:06:54;;;;;;;11.73;8.63;;;;;;;13.80;100.00;95530.88;1022006;29;20509;-66
2021/07/30 01:07:25;;;;;;;12.73;8.82;;;;;;;13.80;100.00;95538.03;1026447;28;20098;-66
2021/07/30 01:07:59;;;;;;;12.90;8.25;;;;;;;13.79;100.00;95539.09;1022418;29;20031;-66
2021/07/30 01:08:29;;;;;;;14.88;9.52;;;;;;;13.79;100.00;95537.25;1024958;28;20668;-64
2021/07/30 01:09:00;;;;;;;11.35;8.43;;;;;;;13.77;100.00;95534.09;1026868;28;20122;-66
2021/07/30 01:09:30;;;;;;;15.15;9.05;;;;;;;13.75;100.00;95533.63;1027090;28;20019;-66
2021/07/30 01:10:01;;;;;;;14.82;8.95;;;;;;;13.74;100.00;95536.53;1022379;28;20019;-66
2021/07/30 01:10:31;;;;;;;13.45;8.90;;;;;;;13.73;100.00;95537.59;1018733;29;20019;-65
2021/07/30 01:11:02;;;;;;;14.02;9.73;;;;;;;13.72;100.00;95534.19;1023649;28;20020;-66
2021/07/30 01:11:32;;;;;;;20.95;9.07;;;;;;;13.66;100.00;95527.41;1018544;29;20062;-64
2021/07/30 01:12:03;;;;;;;16.40;8.60;;;;;;;13.67;100.00;95526.34;1018074;29;20126;-66
2021/07/30 01:12:33;;;;;;;19.33;9.13;;;;;;;13.70;100.00;95541.59;1022727;29;20074;-67
2021/07/30 01:13:04;;;;;;;22.63;9.43;;;;;;;13.63;100.00;95530.63;1023062;29;20015;-68
2021/07/30 01:13:34;;;;;;;17.13;9.38;;;;;;;13.64;100.00;95532.19;1026374;28;20476;-67
2021/07/30 01:14:05;;;;;;;14.13;8.80;;;;;;;13.66;100.00;95537.97;1026695;28;20441;-66
2021/07/30 01:14:38;;;;;;;15.27;9.48;;;;;;;13.67;100.00;95537.66;1027105;28;20018;-66
2021/07/30 01:15:09;;;;;;;17.05;9.45;;;;;;;13.70;100.00;95540.81;1025422;28;20034;-65
2021/07/30 01:15:39;;;;;;;11.80;9.43;;;;;;;13.70;100.00;95541.59;1023177;28;20027;-67
2021/07/30 01:16:09;;;;;;;14.40;9.93;;;;;;;13.62;100.00;95523.78;1026928;28;20015;-67
2021/07/30 01:16:40;;;;;;;14.55;9.98;;;;;;;13.65;100.00;95528.50;1030790;28;20029;-66
2021/07/30 01:17:10;;;;;;;12.88;9.23;;;;;;;13.69;100.00;95537.41;1018976;28;20055;-67
2021/07/30 01:17:41;;;;;;;13.45;8.95;;;;;;;13.71;100.00;95537.09;1026296;28;20023;-67
2021/07/30 01:18:11;;;;;;;18.17;9.27;;;;;;;13.70;100.00;95541.59;1018730;29;20035;-66
2021/07/30 01:18:42;;;;;;;18.02;10.40;;;;;;;13.68;100.00;95533.16;1019264;28;20019;-66
2021/07/30 01:19:20;;;;;;;15.40;8.90;;;;;;;13.68;100.00;95533.16;1026674;28;20027;-67
2021/07/30 01:19:52;;;;;;;14.48;8.98;;;;;;;13.70;100.00;95541.59;1028229;28;20492;-66
2021/07/30 01:20:23;;;;;;;18.02;9.45;;;;;;;13.68;100.00;95539.25;1030602;28;20026;-64
2021/07/30 01:21:15;;;;;;;16.95;9.15;;;;;;;13.70;100.00;95535.53;1030400;28;20026;-66
2021/07/30 01:21:46;;;;;;;14.73;8.68;;;;;;;13.68;100.00;95539.25;1025787;28;20928;-66
2021/07/30 01:22:22;;;;;;;18.75;9.43;;;;;;;13.67;100.00;95536.88;1021422;29;20053;-67
2021/07/30 01:23:02;;;;;;;13.45;9.27;;;;;;;13.66;100.00;95544.03;1026504;28;20057;-67
2021/07/30 01:23:32;;;;;;;12.68;8.80;;;;;;;13.64;100.00;95540.09;1025900;28;20792;-66
2021/07/30 01:24:03;;;;;;;13.90;9.93;;;;;;;13.63;100.00;95530.63;1024231;28;20214;-66
2021/07/30 01:24:33;;;;;;;12.90;9.63;;;;;;;13.61;100.00;95538.03;1026406;28;20039;-65
2021/07/30 01:25:04;;;;;;;12.65;9.30;;;;;;;13.59;100.00;95540.19;1021146;28;20023;-66
2021/07/30 01:25:35;;;;;;;14.27;9.30;;;;;;;13.61;100.00;95535.38;1017795;28;20545;-68
2021/07/30 01:26:05;;;;;;;14.10;9.75;;;;;;;13.59;100.00;95529.63;1023642;28;20258;-66
2021/07/30 01:26:36;;;;;;;13.18;9.85;;;;;;;13.56;100.00;95531.00;1030181;28;20015;-66
2021/07/30 01:27:06;;;;;;;17.55;10.27;;;;;;;13.66;100.00;95536.09;1027633;28;20053;-65
2021/07/30 01:27:37;;;;;;;13.98;9.77;;;;;;;13.62;100.00;95518.53;1025345;28;20508;-67
2021/07/30 01:28:07;;;;;;;15.38;9.70;;;;;;;13.76;100.00;95537.81;1026049;28;20074;-65
2021/07/30 01:28:40;;;;;;;14.15;9.98;;;;;;;13.81;100.00;95537.72;1022931;28;20031;-67
2021/07/30 01:29:11;;;;;;;14.38;10.05;;;;;;;13.85;100.00;95535.31;1026127;28;20030;-67
2021/07/30 01:29:41;;;;;;;13.48;9.15;;;;;;;13.85;100.00;95544.00;1032535;28;20639;-66
2021/07/30 01:30:15;;;;;;;18.08;9.98;;;;;;;13.82;100.00;95530.63;1026238;28;20255;-67
2021/07/30 01:30:46;;;;;;;13.63;9.50;;;;;;;13.90;100.00;95540.50;1022562;29;20023;-68
2021/07/30 01:31:16;;;;;;;14.75;9.48;;;;;;;13.91;100.00;95540.19;1022559;29;20275;-67
2021/07/30 01:31:47;;;;;;;13.13;8.77;;;;;;;13.96;100.00;95549.13;1020681;28;20429;-67
2021/07/30 01:32:17;;;;;;;12.90;9.38;;;;;;;14.00;100.00;95544.81;1026629;28;20035;-68
2021/07/30 01:32:48;;;;;;;14.90;9.63;;;;;;;13.99;100.00;95543.28;1034323;28;20096;-67
2021/07/30 01:33:18;;;;;;;13.25;9.23;;;;;;;14.05;100.00;95547.38;1026542;28;20034;-68
2021/07/30 01:33:49;;;;;;;13.63;9.23;;;;;;;14.01;100.00;95541.88;1026775;28;20023;-65
2021/07/30 01:34:19;;;;;;;14.90;10.00;;;;;;;14.10;100.00;95547.31;1022616;28;20079;-67
2021/07/30 01:34:50;;;;;;;13.00;9.68;;;;;;;14.11;100.00;95551.50;1022552;28;20509;-65
2021/07/30 01:35:20;;;;;;;15.10;9.93;;;;;;;14.11;100.00;95551.50;1023127;28;20145;-66
2021/07/30 01:35:51;;;;;;;15.77;9.65;;;;;;;14.12;100.00;95555.72;1022539;28;20027;-65
2021/07/30 01:36:21;;;;;;;12.52;9.25;;;;;;;14.11;100.00;95549.63;1023074;28;20031;-66
2021/07/30 01:36:52;;;;;;;13.18;9.55;;;;;;;14.08;100.00;95541.53;1026511;28;20038;-66
2021/07/30 01:37:25;;;;;;;13.80;8.85;;;;;;;14.11;100.00;95551.50;1022635;28;20035;-68
2021/07/30 01:37:55;;;;;;;15.45;9.48;;;;;;;14.05;100.00;95545.53;1026512;28;20026;-68
2021/07/30 01:38:26;;;;;;;14.02;9.43;;;;;;;14.04;100.00;95549.22;1025458;28;20335;-68
2021/07/30 01:38:57;;;;;;;12.80;9.32;;;;;;;14.11;100.00;95551.50;1021954;28;20023;-65
2021/07/30 01:39:27;;;;;;;11.45;8.98;;;;;;;14.06;100.00;95543.69;1019476;28;20505;-67
2021/07/30 01:39:58;;;;;;;14.55;9.63;;;;;;;14.08;100.00;95546.78;1030906;28;20030;-68
2021/07/30 01:40:29;;;;;;;15.63;9.65;;;;;;;14.00;100.00;95540.34;1035822;28;20120;-66
2021/07/30 01:41:11;;;;;;;14.93;9.35;;;;;;;13.99;100.00;95543.28;1022917;29;20035;-66
2021/07/30 01:41:42;;;;;;;14.57;9.52;;;;;;;14.06;100.00;95555.00;1019072;29;20043;-66
2021/07/30 01:42:12;;;;;;;15.40;9.43;;;;;;;14.02;100.00;95551.38;1034883;28;20731;-66
2021/07/30 01:42:43;;;;;;;14.80;9.05;;;;;;;14.06;100.00;95559.50;1023196;28;20477;-66
2021/07/30 01:43:13;;;;;;;15.27;9.00;;;;;;;14.05;100.00;95555.28;1023802;29;20720;-67
2021/07/30 01:43:44;;;;;;;14.20;9.43;;;;;;;14.06;100.00;95551.59;1026457;28;20444;-66
2021/07/30 01:44:15;;;;;;;13.60;9.43;;;;;;;14.04;100.00;95557.16;1022738;28;20090;-65
2021/07/30 01:44:45;;;;;;;12.30;9.27;;;;;;;13.99;100.00;95545.91;1021642;28;20039;-65
2021/07/30 01:45:16;;;;;;;11.73;8.65;;;;;;;14.01;100.00;95554.31;1019233;28;20486;-66
2021/07/30 01:45:46;;;;;;;15.52;9.15;;;;;;;14.03;100.00;95552.94;1021511;29;20043;-65
2021/07/30 01:46:17;;;;;;;11.45;9.00;;;;;;;13.99;100.00;95545.91;1027439;28;20031;-66
2021/07/30 01:46:48;;;;;;;12.90;9.00;;;;;;;14.01;100.00;95554.31;1019221;29;20035;-66
2021/07/30 01:47:21;;;;;;;13.15;8.90;;;;;;;14.01;100.00;95551.66;1019274;28;20047;-65
2021/07/30 01:47:52;;;;;;;16.95;9.13;;;;;;;14.02;100.00;95553.25;1026926;28;20436;-66
2021/07/30 01:48:23;;;;;;;18.85;9.73;;;;;;;14.00;100.00;95555.38;1027029;28;20137;-66
2021/07/30 01:48:53;;;;;;;13.82;8.95;;;;;;;13.99;100.00;95556.47;1027220;28;20039;-65
2021/07/30 01:49:24;;;;;;;11.40;8.55;;;;;;;13.88;100.00;95546.06;1027661;28;20057;-67
2021/07/30 01:49:55;;;;;;;15.02;8.65;;;;;;;13.97;100.00;95554.09;1034189;28;20025;-66
2021/07/30 01:50:25;;;;;;;11.60;8.75;;;;;;;13.95;100.00;95553.63;1027642;28;20031;-66
2021/07/30 01:50:56;;;;;;;11.95;8.68;;;;;;;13.97;100.00;95558.59;1019388;28;20027;-67
2021/07/30 01:51:27;;;;;;;14.40;8.98;;;;;;;13.91;100.00;95548.09;1019441;29;20707;-66
2021/07/30 01:51:57;;;;;;;12.20;8.93;;;;;;;13.95;100.00;95550.16;1021522;28;20031;-67
2021/07/30 01:52:28;;;;;;;13.25;9.13;;;;;;;13.93;100.00;95547.06;1030719;28;20030;-67
2021/07/30 01:52:59;;;;;;;12.27;8.85;;;;;;;13.95;100.00;95561.53;1022874;29;20030;-67
2021/07/30 01:53:29;;;;;;;17.20;10.32;;;;;;;13.95;100.00;95558.09;1025723;28;20030;-67
2021/07/30 01:54:00;;;;;;;11.25;8.75;;;;;;;13.90;100.00;95554.47;1021566;29;20039;-67
2021/07/30 01:54:31;;;;;;;12.73;8.70;;;;;;;13.90;100.00;95554.47;1027333;28;20386;-67
2021/07/30 01:55:01;;;;;;;11.35;8.63;;;;;;;13.89;100.00;95560.81;1019298;29;20063;-67
2021/07/30 01:55:31;;;;;;;14.43;9.20;;;;;;;13.87;100.00;95562.94;1019084;29;20066;-66
2021/07/30 01:56:06;;;;;;;13.82;8.63;;;;;;;13.84;100.00;95557.47;1023121;28;20051;-66
2021/07/30 01:56:37;;;;;;;17.02;9.55;;;;;;;13.85;100.00;95565.09;1023026;29;20163;-66
2021/07/30 01:57:08;;;;;;;16.92;9.77;;;;;;;13.83;100.00;95556.69;1019138;29;20603;-67
2021/07/30 01:57:38;;;;;;;11.98;8.93;;;;;;;13.85;100.00;95564.31;1019190;29;20514;-67
2021/07/30 01:58:09;;;;;;;13.52;8.57;;;;;;;13.86;100.00;95561.38;1019221;28;20405;-67
2021/07/30 01:58:40;;;;;;;16.45;9.05;;;;;;;13.85;100.00;95565.09;1019559;29;20114;-67
2021/07/30 01:59:18;;;;;;;17.42;8.82;;;;;;;13.79;100.00;95549.66;1019746;29;20148;-66
2021/07/30 01:59:48;;;;;;;13.52;9.30;;;;;;;13.84;100.00;95558.25;1023455;28;20098;-67
2021/07/30 02:00:19;;;;;;;13.93;8.45;;;;;;;13.85;100.00;95565.09;1019312;29;20275;-66
2021/07/30 02:00:51;;;;;;;14.07;9.32;;;;;;;13.61;100.00;95527.47;1022985;29;20027;-67
2021/07/30 02:01:22;;;;;;;11.50;8.45;;;;;;;13.82;100.00;95560.41;1027448;28;20022;-67
2021/07/30 02:01:53;;;;;;;11.48;8.65;;;;;;;13.80;100.00;95569.66;1022259;28;20081;-67
2021/07/30 02:02:24;;;;;;;13.75;8.05;;;;;;;13.78;100.00;95562.06;1022862;29;20125;-67
2021/07/30 02:02:54;;;;;;;11.50;8.90;;;;;;;13.69;100.00;95550.56;1019216;29;20027;-65
2021/07/30 02:03:25;;;;;;;13.60;8.80;;;;;;;13.76;100.00;95568.69;1031259;28;20057;-66
2021/07/30 02:04:00;;;;;;;15.18;8.85;;;;;;;13.75;100.00;95569.72;1026899;28;20023;-67
2021/07/30 02:04:31;;;;;;;13.55;8.77;;;;;;;13.64;100.00;95553.28;1019154;28;20244;-66
2021/07/30 02:05:02;;;;;;;12.75;8.30;;;;;;;13.73;100.00;95567.38;1027527;28;20296;-65
2021/07/30 02:05:33;;;;;;;10.95;8.57;;;;;;;13.72;100.00;95565.06;1023204;28;20491;-67
2021/07/30 02:06:07;;;;;;;17.60;8.95;;;;;;;13.72;100.00;95570.31;1022413;28;20114;-67
2021/07/30 02:06:38;;;;;;;12.68;9.18;;;;;;;13.42;100.00;95525.66;1015719;28;20738;-67
2021/07/30 02:07:08;;;;;;;12.35;8.88;;;;;;;13.70;100.00;95573.22;1023100;29;20274;-64
2021/07/30 02:07:39;;;;;;;10.10;8.05;;;;;;;13.61;100.00;95559.13;1022803;28;20633;-66
2021/07/30 02:08:09;;;;;;;11.23;7.53;;;;;;;13.66;100.00;95565.13;1018932;29;20024;-65
2021/07/30 02:08:40;;;;;;;13.02;8.55;;;;;;;13.71;100.00;95577.44;1023130;29;20034;-66
2021/07/30 02:09:10;;;;;;;14.27;10.00;;;;;;;13.71;100.00;95579.28;1028120;28;20084;-65
2021/07/30 02:09:41;;;;;;;20.33;8.63;;;;;;;13.67;100.00;95573.81;1027214;28;20035;-66
2021/07/30 02:10:11;;;;;;;15.02;8.35;;;;;;;13.59;100.00;95561.28;1018903;29;20086;-66
2021/07/30 02:10:42;;;;;;;13.80;9.20;;;;;;;13.66;100.00;95573.03;1023469;28;20023;-65
2021/07/30 02:11:14;;;;;;;19.80;9.23;;;;;;;13.60;100.00;95562.84;1018554;29;20031;-67
2021/07/30 02:11:50;;;;;;;16.33;9.45;;;;;;;13.66;100.00;95575.66;1018665;29;20028;-66
2021/07/30 02:12:20;;;;;;;17.38;8.43;;;;;;;13.62;100.00;95573.88;1019357;29;20295;-66
2021/07/30 02:14:29;;;;;;;26.52;9.32;;;;;;;13.53;100.00;95567.69;1027615;28;20286;-67
2021/07/30 02:14:59;;;;;;;12.15;8.52;;;;;;;13.55;100.00;95576.09;1027747;28;20865;-68
2021/07/30 02:15:31;;;;;;;38.08;9.82;;;;;;;13.48;100.00;95563.28;1026990;28;20101;-69
2021/07/30 02:16:02;;;;;;;23.88;9.27;;;;;;;13.52;100.00;95569.53;1022829;28;20391;-67
2021/07/30 02:16:32;;;;;;;23.90;9.35;;;;;;;13.50;100.00;95576.16;1027120;28;20346;-66
2021/07/30 02:17:03;;;;;;;23.17;9.10;;;;;;;13.51;100.00;95577.72;1031143;28;20037;-67
2021/07/30 02:17:33;;;;;;;15.88;8.82;;;;;;;13.46;100.00;95575.16;1028417;28;20401;-68
2021/07/30 02:18:04;;;;;;;17.52;9.13;;;;;;;13.48;100.00;95573.00;1022962;28;20047;-67
2021/07/30 02:18:35;;;;;;;11.57;8.93;;;;;;;13.48;100.00;95575.66;1026926;28;20027;-67
2021/07/30 02:19:05;;;;;;;14.57;8.70;;;;;;;13.41;100.00;95565.47;1019561;29;20024;-66
2021/07/30 02:19:36;;;;;;;13.73;8.98;;;;;;;13.46;100.00;95572.53;1022783;28;20046;-67
2021/07/30 02:20:07;;;;;;;13.10;8.95;;;;;;;13.42;100.00;95570.47;1023406;29;20413;-68
2021/07/30 02:20:37;;;;;;;16.48;9.18;;;;;;;13.44;100.00;95578.84;1030928;28;20182;-67
2021/07/30 02:21:08;;;;;;;17.45;9.48;;;;;;;13.41;100.00;95584.72;1026640;28;20043;-67
2021/07/30 02:21:39;;;;;;;14.18;8.73;;;;;;;13.43;100.00;95579.94;1023370;29;20159;-69
2021/07/30 02:22:09;;;;;;;16.70;10.02;;;;;;;13.38;100.00;95582.63;1022308;28;20114;-68
2021/07/30 02:22:40;;;;;;;15.63;9.50;;;;;;;13.35;100.00;95580.56;1018935;28;20031;-68
2021/07/30 02:23:11;;;;;;;13.88;9.07;;;;;;;13.25;100.00;95572.03;1019257;29;20775;-68
2021/07/30 02:23:45;;;;;;;15.95;8.88;;;;;;;13.35;100.00;95588.47;1023195;29;20073;-69
2021/07/30 02:24:15;;;;;;;14.30;8.23;;;;;;;13.33;100.00;95577.44;1023049;28;20031;-67